Time,TemperatureF,DewpointF,PressureIn,WindDirection,WindDirectionDegrees,WindSpeedMPH,WindSpeedGustMPH,Humidity,HourlyPrecipIn,Conditions,Clouds,dailyrainin,SoftwareType,DateUTC
2013-04-12 00:06:00,76.2,72.0,29.87,East,80,2.0,8.0,87,0.00,,,0.00,weatherlink.com 1.10,2013-04-12 04:06:00,
2013-04-12 00:21:00,76.0,72.0,29.87,SSW,194,7.0,7.0,88,0.00,,,0.00,weatherlink.com 1.10,2013-04-12 04:21:00,
2013-04-12 00:36:00,76.0,72.0,29.88,SSE,162,1.0,5.0,88,0.00,,,0.00,weatherlink.com 1.10,2013-04-12 04:36:00,
2013-04-12 00:51:00,76.0,72.0,29.88,ESE,108,1.0,4.0,88,0.00,,,0.00,weatherlink.com 1.10,2013-04-12 04:51:00,
2013-04-12 01:06:00,76.0,73.0,29.89,SSE,160,1.0,2.0,89,0.00,,,0.00,weatherlink.com 1.10,2013-04-12 05:06:00,
2013-04-12 01:36:00,75.7,72.0,29.89,SE,128,0.0,0.0,89,0.00,,,0.00,weatherlink.com 1.10,2013-04-12 05:36:00,
2013-04-12 01:51:00,75.5,73.0,29.90,ESE,119,0.0,0.0,90,0.00,,,0.00,weatherlink.com 1.10,2013-04-12 05:51:00,
2013-04-12 02:06:00,75.4,73.0,29.89,SE,133,0.0,1.0,91,0.00,,,0.00,weatherlink.com 1.10,2013-04-12 06:06:00,
2013-04-12 02:22:00,75.3,73.0,29.89,SE,143,0.0,0.0,91,0.00,,,0.00,weatherlink.com 1.10,2013-04-12 06:22:00,
2013-04-12 02:37:00,75.0,73.0,29.89,SE,135,0.0,0.0,92,0.00,,,0.00,weatherlink.com 1.10,2013-04-12 06:37:00,
2013-04-12 02:52:00,74.7,72.0,29.89,ESE,109,0.0,0.0,92,0.00,,,0.00,weatherlink.com 1.10,2013-04-12 06:52:00,
2013-04-12 03:07:00,74.5,72.0,29.89,East,86,0.0,0.0,93,0.00,,,0.00,weatherlink.com 1.10,2013-04-12 07:07:00,
2013-04-12 03:22:00,74.4,72.0,29.89,ESE,114,0.0,0.0,93,0.00,,,0.00,weatherlink.com 1.10,2013-04-12 07:22:00,
2013-04-12 03:37:00,74.6,73.0,29.89,SE,126,0.0,0.0,93,0.00,,,0.00,weatherlink.com 1.10,2013-04-12 07:37:00,
2013-04-12 03:52:00,74.7,73.0,29.89,SE,145,0.0,0.0,93,0.00,,,0.00,weatherlink.com 1.10,2013-04-12 07:52:00,
2013-04-12 04:07:00,74.6,73.0,29.89,SSE,151,0.0,0.0,93,0.00,,,0.00,weatherlink.com 1.10,2013-04-12 08:07:00,
2013-04-12 04:22:00,74.5,72.0,29.88,South,174,1.0,1.0,93,0.00,,,0.00,weatherlink.com 1.10,2013-04-12 08:22:00,
2013-04-12 04:37:00,74.5,73.0,29.87,South,173,0.0,4.0,94,0.00,,,0.00,weatherlink.com 1.10,2013-04-12 08:37:00,
2013-04-12 04:52:00,74.5,73.0,29.86,SE,126,1.0,5.0,94,0.00,,,0.00,weatherlink.com 1.10,2013-04-12 08:52:00,
2013-04-12 05:07:00,74.5,73.0,29.87,SE,136,1.0,2.0,94,0.00,,,0.00,weatherlink.com 1.10,2013-04-12 09:07:00,
2013-04-12 05:22:00,74.4,73.0,29.87,SE,145,0.0,4.0,94,0.00,,,0.00,weatherlink.com 1.10,2013-04-12 09:22:00,
2013-04-12 05:37:00,74.4,73.0,29.87,ESE,115,0.0,3.0,94,0.00,,,0.00,weatherlink.com 1.10,2013-04-12 09:37:00,
2013-04-12 06:07:00,74.5,73.0,29.88,ESE,108,0.0,1.0,94,0.00,,,0.00,weatherlink.com 1.10,2013-04-12 10:07:00,
2013-04-12 06:22:00,74.5,73.0,29.88,SSE,148,0.0,1.0,95,0.00,,,0.00,weatherlink.com 1.10,2013-04-12 10:22:00,
2013-04-12 06:37:00,74.6,73.0,29.87,SE,145,1.0,4.0,95,0.00,,,0.00,weatherlink.com 1.10,2013-04-12 10:37:00,
2013-04-12 06:52:00,74.8,73.0,29.87,SSE,157,1.0,8.0,94,0.00,,,0.00,weatherlink.com 1.10,2013-04-12 10:52:00,
2013-04-12 07:07:00,74.6,73.0,29.88,SE,133,1.0,3.0,95,0.00,,,0.00,weatherlink.com 1.10,2013-04-12 11:07:00,
2013-04-12 07:22:00,74.6,73.0,29.88,SE,131,0.0,2.0,95,0.00,,,0.00,weatherlink.com 1.10,2013-04-12 11:22:00,
2013-04-12 07:37:00,74.9,73.0,29.89,SSE,158,0.0,2.0,95,0.00,,,0.00,weatherlink.com 1.10,2013-04-12 11:37:00,
2013-04-12 07:52:00,75.3,74.0,29.91,SE,137,0.0,0.0,95,0.00,,,0.00,weatherlink.com 1.10,2013-04-12 11:52:00,
2013-04-12 08:07:00,76.0,75.0,29.90,South,176,1.0,4.0,95,0.00,,,0.00,weatherlink.com 1.10,2013-04-12 12:07:00,
2013-04-12 08:22:00,77.0,75.0,29.91,SSE,162,1.0,4.0,93,0.00,,,0.00,weatherlink.com 1.10,2013-04-12 12:22:00,
2013-04-12 08:37:00,78.0,76.0,29.90,SSW,211,2.0,5.0,92,0.00,,,0.00,weatherlink.com 1.10,2013-04-12 12:37:00,
2013-04-12 09:07:00,80.1,76.0,29.89,SSW,197,1.0,5.0,87,0.00,,,0.00,weatherlink.com 1.10,2013-04-12 13:07:00,
2013-04-12 09:22:00,80.2,76.0,29.89,SW,225,2.0,7.0,86,0.00,,,0.00,weatherlink.com 1.10,2013-04-12 13:22:00,
2013-04-12 09:37:00,80.3,76.0,29.90,SW,233,1.0,10.0,86,0.00,,,0.00,weatherlink.com 1.10,2013-04-12 13:37:00,
2013-04-12 09:52:00,80.6,75.0,29.91,WSW,256,9.0,13.0,84,0.00,,,0.00,weatherlink.com 1.10,2013-04-12 13:52:00,
2013-04-12 10:07:00,81.0,75.0,29.91,SSW,193,4.0,13.0,83,0.00,,,0.00,weatherlink.com 1.10,2013-04-12 14:07:00,
2013-04-12 10:23:00,81.5,75.0,29.91,South,177,2.0,15.0,81,0.00,,,0.00,weatherlink.com 1.10,2013-04-12 14:23:00,
2013-04-12 10:37:00,82.7,76.0,29.91,WSW,250,4.0,14.0,80,0.00,,,0.00,weatherlink.com 1.10,2013-04-12 14:37:00,
2013-04-12 10:52:00,83.5,76.0,29.91,WSW,242,5.0,11.0,78,0.00,,,0.00,weatherlink.com 1.10,2013-04-12 14:52:00,
2013-04-12 11:08:00,83.6,76.0,29.91,SW,222,4.0,12.0,77,0.00,,,0.00,weatherlink.com 1.10,2013-04-12 15:08:00,
2013-04-12 11:23:00,83.4,75.0,29.92,South,190,12.0,13.0,76,0.00,,,0.00,weatherlink.com 1.10,2013-04-12 15:23:00,
2013-04-12 11:38:00,84.0,75.0,29.93,WSW,253,5.0,13.0,75,0.00,,,0.00,weatherlink.com 1.10,2013-04-12 15:38:00,
2013-04-12 11:53:00,84.6,76.0,29.93,SW,221,6.0,11.0,75,0.00,,,0.00,weatherlink.com 1.10,2013-04-12 15:53:00,
2013-04-12 12:08:00,84.3,75.0,29.93,WSW,243,5.0,17.0,74,0.00,,,0.00,weatherlink.com 1.10,2013-04-12 16:08:00,
2013-04-12 12:23:00,85.2,76.0,29.93,WSW,239,3.0,12.0,74,0.00,,,0.00,weatherlink.com 1.10,2013-04-12 16:23:00,
2013-04-12 12:38:00,85.3,76.0,29.92,West,266,3.0,13.0,73,0.00,,,0.00,weatherlink.com 1.10,2013-04-12 16:38:00,
2013-04-12 12:53:00,85.8,76.0,29.92,SW,214,3.0,13.0,72,0.00,,,0.00,weatherlink.com 1.10,2013-04-12 16:53:00,
2013-04-12 13:08:00,85.9,76.0,29.91,SW,229,5.0,12.0,71,0.00,,,0.00,weatherlink.com 1.10,2013-04-12 17:08:00,
2013-04-12 13:23:00,86.1,76.0,29.91,NW,314,11.0,12.0,72,0.00,,,0.00,weatherlink.com 1.10,2013-04-12 17:23:00,
2013-04-12 13:38:00,86.1,75.0,29.91,WSW,240,4.0,11.0,70,0.00,,,0.00,weatherlink.com 1.10,2013-04-12 17:38:00,
2013-04-12 14:08:00,84.6,75.0,29.91,West,261,3.0,14.0,73,0.00,,,0.00,weatherlink.com 1.10,2013-04-12 18:08:00,
2013-04-12 15:38:00,84.4,75.0,29.88,West,277,6.0,12.0,73,0.00,,,0.00,weatherlink.com 1.10,2013-04-12 19:38:00,
2013-04-12 15:53:00,83.4,75.0,29.88,SW,231,4.0,15.0,75,0.00,,,0.00,weatherlink.com 1.10,2013-04-12 19:53:00,
2013-04-12 16:08:00,84.1,75.0,29.88,WSW,248,5.0,11.0,73,0.00,,,0.00,weatherlink.com 1.10,2013-04-12 20:08:00,
2013-04-12 16:23:00,83.3,75.0,29.88,WSW,248,2.0,11.0,76,0.00,,,0.00,weatherlink.com 1.10,2013-04-12 20:23:00,
2013-04-12 16:38:00,82.9,75.0,29.88,SW,222,5.0,12.0,77,0.00,,,0.00,weatherlink.com 1.10,2013-04-12 20:38:00,
2013-04-12 16:53:00,83.5,75.0,29.88,SW,222,8.0,13.0,75,0.00,,,0.00,weatherlink.com 1.10,2013-04-12 20:53:00,
2013-04-12 17:08:00,82.6,74.0,29.88,WSW,245,4.0,13.0,76,0.00,,,0.00,weatherlink.com 1.10,2013-04-12 21:08:00,
2013-04-12 17:23:00,81.6,75.0,29.88,WSW,257,6.0,13.0,79,0.00,,,0.00,weatherlink.com 1.10,2013-04-12 21:23:00,
2013-04-12 17:38:00,82.0,75.0,29.88,West,260,10.0,13.0,79,0.00,,,0.00,weatherlink.com 1.10,2013-04-12 21:38:00,
2013-04-12 17:53:00,82.3,75.0,29.87,WSW,238,5.0,12.0,78,0.00,,,0.00,weatherlink.com 1.10,2013-04-12 21:53:00,
2013-04-12 18:08:00,81.2,74.0,29.87,WSW,250,9.0,13.0,79,0.00,,,0.00,weatherlink.com 1.10,2013-04-12 22:08:00,
2013-04-12 18:23:00,80.2,74.0,29.88,SW,228,7.0,13.0,82,0.00,,,0.00,weatherlink.com 1.10,2013-04-12 22:23:00,
2013-04-12 18:38:00,79.6,74.0,29.89,SSW,200,2.0,8.0,83,0.00,,,0.00,weatherlink.com 1.10,2013-04-12 22:38:00,
2013-04-12 18:53:00,79.1,74.0,29.89,SW,233,3.0,11.0,84,0.00,,,0.00,weatherlink.com 1.10,2013-04-12 22:53:00,
2013-04-12 19:08:00,78.7,74.0,29.88,SW,232,5.0,9.0,85,0.00,,,0.00,weatherlink.com 1.10,2013-04-12 23:08:00,
2013-04-12 19:23:00,78.3,74.0,29.89,SW,236,8.0,9.0,86,0.00,,,0.00,weatherlink.com 1.10,2013-04-12 23:23:00,
2013-04-12 19:38:00,77.9,74.0,29.89,SW,220,6.0,7.0,87,0.00,,,0.00,weatherlink.com 1.10,2013-04-12 23:38:00,
2013-04-12 19:53:00,77.4,74.0,29.89,WSW,243,2.0,7.0,88,0.00,,,0.00,weatherlink.com 1.10,2013-04-12 23:53:00,
2013-04-12 20:08:00,77.2,74.0,29.89,WSW,238,5.0,6.0,89,0.00,,,0.00,weatherlink.com 1.10,2013-04-13 00:08:00,
2013-04-12 20:23:00,76.9,74.0,29.90,SW,222,3.0,5.0,89,0.00,,,0.00,weatherlink.com 1.10,2013-04-13 00:23:00,
2013-04-12 20:38:00,76.8,74.0,29.91,WSW,243,3.0,7.0,90,0.00,,,0.00,weatherlink.com 1.10,2013-04-13 00:38:00,
2013-04-12 20:53:00,76.7,74.0,29.91,WSW,248,3.0,7.0,90,0.00,,,0.00,weatherlink.com 1.10,2013-04-13 00:53:00,
2013-04-12 21:08:00,76.5,74.0,29.91,WSW,247,3.0,8.0,90,0.00,,,0.00,weatherlink.com 1.10,2013-04-13 01:08:00,
2013-04-12 21:23:00,76.5,74.0,29.91,WSW,243,2.0,7.0,90,0.00,,,0.00,weatherlink.com 1.10,2013-04-13 01:23:00,
2013-04-12 21:38:00,76.6,74.0,29.91,West,273,3.0,12.0,90,0.00,,,0.00,weatherlink.com 1.10,2013-04-13 01:38:00,
2013-04-12 21:53:00,76.6,74.0,29.90,SSE,157,3.0,9.0,90,0.00,,,0.00,weatherlink.com 1.10,2013-04-13 01:53:00,
2013-04-12 22:08:00,76.4,73.0,29.91,WSW,256,6.0,6.0,90,0.00,,,0.00,weatherlink.com 1.10,2013-04-13 02:08:00,
2013-04-12 22:23:00,76.4,73.0,29.91,SSW,207,2.0,7.0,90,0.00,,,0.00,weatherlink.com 1.10,2013-04-13 02:23:00,
2013-04-12 22:38:00,76.4,73.0,29.91,West,277,5.0,7.0,89,0.00,,,0.00,weatherlink.com 1.10,2013-04-13 02:38:00,
2013-04-12 22:53:00,76.4,73.0,29.92,SW,226,5.0,8.0,89,0.00,,,0.00,weatherlink.com 1.10,2013-04-13 02:53:00,
2013-04-12 23:08:00,76.5,73.0,29.91,SSW,209,2.0,7.0,89,0.00,,,0.00,weatherlink.com 1.10,2013-04-13 03:08:00,
2013-04-12 23:23:00,76.5,73.0,29.91,SSW,194,5.0,10.0,89,0.00,,,0.00,weatherlink.com 1.10,2013-04-13 03:23:00,
2013-04-12 23:38:00,76.5,73.0,29.91,WSW,238,2.0,7.0,89,0.00,,,0.00,weatherlink.com 1.10,2013-04-13 03:38:00,
2013-04-12 23:53:00,76.6,73.0,29.90,WSW,250,2.0,9.0,89,0.00,,,0.00,weatherlink.com 1.10,2013-04-13 03:53:00,